METAR Data
IDs: Format: Raw Decoded Include TAF

Data at: 0047 UTC 05 Jul 2022

METAR for:RPLL (Manila/Aquino Intl, NC, PH)
Text:RPLL 050000Z 06003KT 030V090 9000 FEW025 BKN100 29/24 Q1009 NOSIG RMK A2980
Temperature: 29.0°C ( 84°F)
Dewpoint: 24.0°C ( 75°F) [RH = 74%]
Pressure (altimeter):29.79 inches Hg (1009.0 mb)
Winds:from the ENE (60 degrees) at 3 MPH (3 knots; 1.5 m/s)
Visibility: 6 sm ( 9 km)
Ceiling:10000 feet AGL
Clouds: few clouds at 2500 feet AGL, broken clouds at 10000 feet AGL